Sao Paulo, Brazil
Current Conditions -  °F | °C
As of 2:00 PM on Saturday 22 Nov 2014 (Local Time) from SBMT Reporting Station
Clear Clear  
Wind Chill: 81°   Ceiling: Unl
Heat Index: 81°   Visibility: 6mi
Dew Point: 61°   Wind: 14mph
Humidity: 51%   Direction: 280°W
Pressure: 29.97"   Gusts: NA
Location:  23.53°S, 46.63°W
Report Text: SBMT 221600Z 28012KT CAVOK 27/16 Q1015
Loading
Personal Weather Stations






























Interactive Weather Map New forecast layout! Learn more

10-Day Weather Forecast

Advertisements
Track Severe Weather on mobile